Buoy 13526

sailwx.info

Track history (hours):
 
Tides and Currents Weather Stations Pressure Air Temp Water Temp Dewpoint Dewpoint Depression Visibility Wind Speed Wind Dir Waves Ship Positions

Drifting buoy 13526

Last reported at 2016-Sep-26 22:43 UTC. Time now 2016-Sep-27 00:14 UTC.
Position N 31°08' W 059°52'.

Water temperature 28.1 ° C

Date/timePositionNaut miles runAvg speedWind from/ knotsBaromVisibWave heightAir tempDewpointWater temp
2016-Sep-26 22:43N 31°08' W 059°52'0 3.1 28.1
2016-Sep-26 22:40N 31°08' W 059°52'111.4 28.1
2016-Sep-26 22:36N 31°09' W 059°53'0 0.1 28.1
2016-Sep-26 22:07N 31°09' W 059°53'1 6.3 28.1
2016-Sep-26 21:56N 31°10' W 059°52'0 0.0 28.1
2016-Sep-26 21:05N 31°10' W 059°52'1 8.0 28.1
2016-Sep-26 20:59N 31°10' W 059°53'2 3.1 28.1
2016-Sep-26 20:27N 31°11' W 059°54'0 0.0 28.1
2016-Sep-26 20:15N 31°11' W 059°54'0 0.0 28.1
2016-Sep-26 18:40N 31°11' W 059°54'0 1.2 28.1
2016-Sep-26 18:34N 31°11' W 059°54'1 7.6 28.1
2016-Sep-26 18:29N 31°12' W 059°55'0 0.0 28.1
2016-Sep-26 16:57N 31°12' W 059°55'1 0.8 28.1
2016-Sep-26 15:17N 31°11' W 059°55'0 0.0 28.2
2016-Sep-26 14:34N 31°11' W 059°55'0 0.0 28.2
2016-Sep-26 14:30N 31°11' W 059°55'1 6.7 28.2
2016-Sep-26 14:24N 31°10' W 059°55'0 0.0 28.2
2016-Sep-26 13:41N 31°10' W 059°55'0 0.0 28.1
2016-Sep-26 13:39N 31°10' W 059°55'0 0.0 28.1
2016-Sep-26 12:53N 31°10' W 059°55'1 4.1 28.1
2016-Sep-26 12:45N 31°10' W 059°54'0 0.0 28.1
2016-Sep-26 12:26N 31°10' W 059°54'0 0.0 28.1
2016-Sep-26 11:56N 31°10' W 059°54'0 0.0 28.1
2016-Sep-26 11:32N 31°10' W 059°54'0 4.8 28.1
2016-Sep-26 11:26N 31°10' W 059°54'0 0.4 28.1
2016-Sep-26 11:18N 31°10' W 059°54'0 0.5 28.1
2016-Sep-26 10:52N 31°10' W 059°54'0 0.0 28.1
2016-Sep-26 10:50N 31°10' W 059°54'1 1.3 28.1
2016-Sep-26 09:52N 31°09' W 059°52'0 0.0 28.1
2016-Sep-26 09:51N 31°09' W 059°52'0 3.8 28.1
2016-Sep-26 09:46N 31°09' W 059°53'0 1.3 28.1
2016-Sep-26 09:40N 31°09' W 059°53'1 0.6 28.1
2016-Sep-26 08:52N 31°09' W 059°52'0 4.7 28.1
2016-Sep-26 08:51N 31°09' W 059°52'0 8.6 28.1
2016-Sep-26 08:48N 31°09' W 059°52'0 0.0 28.1
2016-Sep-26 08:14N 31°09' W 059°52'2 1.6 28.1
2016-Sep-26 07:16N 31°09' W 059°50'210.6 28.1
2016-Sep-26 07:07N 31°11' W 059°49'3 0.7 28.1
2016-Sep-26 02:54N 31°13' W 059°47'0 0.0
2016-Sep-26 02:06N 31°13' W 059°47'237.2 28.1
2016-Sep-26 02:03N 31°15' W 059°47'0 0.0 28.1
2016-Sep-26 00:26N 31°15' W 059°46'0 5.3 28.1
2016-Sep-26 00:23N 31°15' W 059°47'1 5.2 28.1
2016-Sep-26 00:17N 31°15' W 059°46'1 0.7 28.1
2016-Sep-25 22:53N 31°16' W 059°47'0 1.8 28.1
2016-Sep-25 22:38N 31°16' W 059°47'1 6.8 28.2
2016-Sep-25 22:25N 31°18' W 059°48'0 0.0 28.2
2016-Sep-25 21:18N 31°18' W 059°48'1 1.2 28.2
2016-Sep-25 20:52N 31°18' W 059°49'0 0.9 28.2
2016-Sep-25 20:47N 31°18' W 059°49'115.5 28.2
2016-Sep-25 20:43N 31°18' W 059°50'1 5.1 28.2
2016-Sep-25 20:26N 31°18' W 059°51'0 0.0 28.2
2016-Sep-25 18:51N 31°18' W 059°51'1 4.3 28.2
2016-Sep-25 18:41N 31°18' W 059°52'1 0.4 28.2
2016-Sep-25 14:53N 31°17' W 059°53'0 3.1 28.2
2016-Sep-25 14:51N 31°17' W 059°53'1 1.2 28.2
2016-Sep-25 13:53N 31°16' W 059°52'0 0.0 28.1
2016-Sep-25 13:13N 31°16' W 059°52'0 2.1 28.1
2016-Sep-25 13:07N 31°16' W 059°52'1 0.7 28.1
2016-Sep-25 11:37N 31°15' W 059°51'0 0.6 28.1
2016-Sep-25 11:32N 31°15' W 059°51'0 1.3 28.1
2016-Sep-25 11:26N 31°15' W 059°51'0 0.0 28.1
2016-Sep-25 11:15N 31°15' W 059°51'1 4.9 28.1
2016-Sep-25 11:06N 31°15' W 059°50'0 0.0 28.1
2016-Sep-25 10:26N 31°15' W 059°50'0 3.1 28.1
2016-Sep-25 10:22N 31°15' W 059°50'0 2.1 28.1
2016-Sep-25 10:15N 31°15' W 059°50'0 0.0 28.1
2016-Sep-25 09:52N 31°15' W 059°50'0 4.7 28.1
2016-Sep-25 09:51N 31°15' W 059°50'0 4.5 28.1
2016-Sep-25 09:46N 31°15' W 059°50'1 2.2 28.1
2016-Sep-25 09:28N 31°16' W 059°50'1 2.5 28.1
2016-Sep-25 09:03N 31°16' W 059°48'0 0.0 28.1
2016-Sep-25 08:59N 31°16' W 059°48'1 5.0 28.1
2016-Sep-25 08:46N 31°15' W 059°49'1 0.8 28.1
2016-Sep-25 07:25N 31°16' W 059°48'118.1 28.1
2016-Sep-25 07:21N 31°17' W 059°49'0 0.0 28.1
2016-Sep-25 07:16N 31°17' W 059°49'0 0.0 28.1
2016-Sep-25 05:44N 31°17' W 059°49'3 1.0 28.1
2016-Sep-25 02:29N 31°20' W 059°49'2 1.0 28.2
2016-Sep-25 00:51N 31°22' W 059°50'326.3 28.2
2016-Sep-25 00:45N 31°23' W 059°53'0 0.0 28.2
2016-Sep-24 23:53N 31°23' W 059°53'1 0.9 28.2
2016-Sep-24 23:07N 31°23' W 059°54'0 2.4 28.2
2016-Sep-24 23:05N 31°23' W 059°54'1 2.3 28.2
2016-Sep-24 22:52N 31°23' W 059°54'117.3
2016-Sep-24 22:50N 31°23' W 059°55'2 1.2 28.2
2016-Sep-24 21:32N 31°24' W 059°56'0 0.0 28.2
2016-Sep-24 21:29N 31°24' W 059°56'0 1.3 28.2
2016-Sep-24 21:18N 31°24' W 059°57'6 2.5 28.2
2016-Sep-24 18:52N 31°21' W 060°03'0 0.0 28.3
2016-Sep-24 17:20N 31°21' W 060°03'3 1.4 28.3
2016-Sep-24 15:13N 31°19' W 060°05'218.6 28.3
2016-Sep-24 15:05N 31°16' W 060°06'0 0.0 28.3
2016-Sep-24 14:16N 31°16' W 060°06'0 0.2 28.3
2016-Sep-24 13:33N 31°16' W 060°06'217.9 28.3
2016-Sep-24 13:26N 31°14' W 060°06'0 0.0 28.3
2016-Sep-24 11:48N 31°14' W 060°06'0 0.0 28.3
2016-Sep-24 11:43N 31°14' W 060°06'120.6 28.3
2016-Sep-24 11:40N 31°13' W 060°06'0 0.2 28.3
2016-Sep-24 10:52N 31°13' W 060°06'1 8.4 28.3
2016-Sep-24 10:46N 31°12' W 060°06'1 0.8 28.3
2016-Sep-24 10:00N 31°13' W 060°07'137.5 28.3
2016-Sep-24 09:59N 31°12' W 060°06'1 1.0 28.3
2016-Sep-24 09:16N 31°12' W 060°07'117.1 28.3
2016-Sep-24 09:11N 31°10' W 060°06'0 0.0 28.3
2016-Sep-24 07:38N 31°10' W 060°06'1 7.1 28.3
2016-Sep-24 07:33N 31°10' W 060°05'3 0.6 28.3
2016-Sep-24 02:46N 31°07' W 060°05'0 0.0 28.3
2016-Sep-24 01:53N 31°07' W 060°05'118.8 28.4
2016-Sep-24 01:51N 31°07' W 060°04'0 0.0 28.3
2016-Sep-24 01:07N 31°07' W 060°04'127.0 28.3
2016-Sep-24 01:05N 31°06' W 060°05'0 0.0 28.4
2016-Sep-24 00:18N 31°06' W 060°05'0 0.4 28.4
2016-Sep-23 23:41N 31°06' W 060°05'0 1.7 28.4
2016-Sep-23 23:30N 31°06' W 060°05'0 1.4 28.4
2016-Sep-23 23:21N 31°06' W 060°06'0 3.8 28.4
2016-Sep-23 23:16N 31°06' W 060°05'1 0.7 28.4
2016-Sep-23 22:06N 31°05' W 060°06'0 1.4 28.4
2016-Sep-23 22:01N 31°05' W 060°06'0 1.5 28.4
2016-Sep-23 21:43N 31°05' W 060°06'0 2.4 28.4
2016-Sep-23 21:41N 31°05' W 060°06'2 0.9 28.4
2016-Sep-23 19:52N 31°04' W 060°06'0 0.2 28.4
2016-Sep-23 19:06N 31°04' W 060°06'125.7 28.4
2016-Sep-23 19:03N 31°02' W 060°07'0 0.0 28.4
2016-Sep-23 17:31N 31°02' W 060°07'2 0.9 28.4
2016-Sep-23 15:33N 31°01' W 060°07'3 2.8 28.4
2016-Sep-23 14:38N 30°59' W 060°06'0 0.3 28.5
2016-Sep-23 13:52N 30°59' W 060°05'1 0.9 28.5
2016-Sep-23 13:01N 30°58' W 060°06'1 1.3 28.5
2016-Sep-23 12:14N 30°57' W 060°05'0 0.0 28.4
2016-Sep-23 12:03N 30°57' W 060°05'0 0.6 28.4
2016-Sep-23 11:52N 30°57' W 060°05'122.4 28.4
2016-Sep-23 11:49N 30°56' W 060°04'0 0.0 28.4
2016-Sep-23 11:23N 30°56' W 060°04'1 0.7 28.4
2016-Sep-23 10:25N 30°56' W 060°04'0 1.1 28.4
2016-Sep-23 10:16N 30°56' W 060°04'1 1.5 28.4
2016-Sep-23 09:48N 30°55' W 060°03'1 9.0 28.4
2016-Sep-23 09:39N 30°55' W 060°02'0 0.0 28.4
2016-Sep-23 09:25N 30°55' W 060°02'1 0.9 28.4
2016-Sep-23 07:52N 30°54' W 060°00'0 0.0 28.4
2016-Sep-23 07:50N 30°54' W 060°00'0 0.0 28.4
2016-Sep-23 07:46N 30°54' W 060°00'0 0.0 28.4
2016-Sep-23 06:07N 30°54' W 060°00'0 0.0
2016-Sep-23 06:06N 30°54' W 060°00'2 0.5 28.5
2016-Sep-23 02:19N 30°54' W 059°58'0 3.6 28.5
2016-Sep-23 02:13N 30°54' W 059°58'1 7.6 28.5
2016-Sep-23 02:08N 30°53' W 059°58'0 0.0
2016-Sep-23 01:35N 30°53' W 059°58'0 0.8 28.5
2016-Sep-23 01:31N 30°53' W 059°58'0 3.1 28.5
2016-Sep-23 01:25N 30°53' W 059°57'0 0.2 28.5
2016-Sep-23 00:39N 30°53' W 059°57'0 0.3 28.5
2016-Sep-22 23:53N 30°53' W 059°57'0 2.1 28.5
2016-Sep-22 23:47N 30°53' W 059°57'0 0.0 28.5
2016-Sep-22 23:32N 30°53' W 059°57'110.3 28.5
2016-Sep-22 23:29N 30°53' W 059°57'0 0.0 28.5
2016-Sep-22 22:37N 30°53' W 059°57'0 0.4 28.5
2016-Sep-22 22:06N 30°53' W 059°57'0 1.8 28.5
2016-Sep-22 21:57N 30°53' W 059°57'0 0.0 28.5
2016-Sep-22 21:52N 30°53' W 059°57'1 0.6 28.5
2016-Sep-22 20:52N 30°53' W 059°56'0 0.7 28.5
2016-Sep-22 20:26N 30°53' W 059°56'1 0.8 28.5
2016-Sep-22 19:23N 30°53' W 059°55'019.0 28.5
2016-Sep-22 19:22N 30°53' W 059°55'1 5.0 28.5
2016-Sep-22 19:14N 30°52' W 059°56'0 0.0 28.5
2016-Sep-22 17:38N 30°52' W 059°56'1 0.3 28.5
2016-Sep-22 15:03N 30°52' W 059°55'1 0.4 28.5
2016-Sep-22 12:29N 30°51' W 059°54'0 0.0 28.5
2016-Sep-22 12:25N 30°51' W 059°54'0 0.5 28.5
2016-Sep-22 12:06N 30°51' W 059°54'122.0 28.5
2016-Sep-22 12:03N 30°50' W 059°53'0 0.0 28.5
2016-Sep-22 10:51N 30°50' W 059°53'0 0.7 28.5
2016-Sep-22 10:28N 30°50' W 059°53'0 1.3 28.5
2016-Sep-22 10:22N 30°50' W 059°53'0 1.8 28.5
2016-Sep-22 10:18N 30°50' W 059°53'1 0.8 28.5
2016-Sep-22 09:02N 30°50' W 059°52'1 1.8 28.5
2016-Sep-22 08:44N 30°50' W 059°52'1 6.6 28.5
2016-Sep-22 08:39N 30°50' W 059°52'1 3.7 28.5
2016-Sep-22 08:30N 30°50' W 059°52'0 0.0 28.5
2016-Sep-22 08:03N 30°50' W 059°52'0 2.9 28.5
2016-Sep-22 07:53N 30°50' W 059°51'0 0.0 28.5
2016-Sep-22 06:20N 30°50' W 059°51'0 1.6 28.5
2016-Sep-22 06:17N 30°50' W 059°51'1 0.2 28.5
2016-Sep-22 02:41N 30°49' W 059°51'0 1.6 28.5
2016-Sep-22 02:35N 30°49' W 059°51'0 0.3 28.5
2016-Sep-22 01:53N 30°49' W 059°51'0 0.9 28.5
2016-Sep-22 01:45N 30°49' W 059°51'0 0.0 28.5
2016-Sep-22 01:01N 30°49' W 059°51'0 1.5 28.5
2016-Sep-22 00:53N 30°49' W 059°51'0 0.3 28.5
2016-Sep-22 00:07N 30°49' W 059°51'011.7 28.5
2016-Sep-22 00:06N 30°49' W 059°51'1 1.3 28.5
2016-Sep-21 23:41N 30°48' W 059°51'0 0.2 28.5
2016-Sep-21 23:18N 30°48' W 059°51'0 1.2 28.5
2016-Sep-21 23:04N 30°48' W 059°51'0 0.0 28.5
2016-Sep-21 23:01N 30°48' W 059°51'0 0.8 28.5
2016-Sep-21 22:28N 30°48' W 059°51'0 1.3 28.5
2016-Sep-21 22:22N 30°48' W 059°51'0 0.0 28.5
2016-Sep-21 22:05N 30°48' W 059°51'0 0.0 28.6
2016-Sep-21 22:00N 30°48' W 059°51'0 1.9 28.6
2016-Sep-21 21:55N 30°48' W 059°51'0 0.0 28.6
2016-Sep-21 21:28N 30°48' W 059°51'0 0.3 28.6
2016-Sep-21 20:53N 30°48' W 059°51'0 1.4 28.6
2016-Sep-21 20:46N 30°48' W 059°51'1 1.5 28.6
2016-Sep-21 20:22N 30°48' W 059°50'0 0.1 28.6
2016-Sep-21 19:34N 30°48' W 059°50'0 0.8 28.6
2016-Sep-21 19:30N 30°48' W 059°50'0 5.4 28.6
2016-Sep-21 19:25N 30°47' W 059°51'0 0.0 28.6
2016-Sep-21 17:52N 30°47' W 059°51'1 0.6 28.6
2016-Sep-21 15:21N 30°46' W 059°51'0 0.7 28.6
2016-Sep-21 14:38N 30°46' W 059°50'0 0.8 28.5
2016-Sep-21 14:32N 30°45' W 059°50'0 0.4 28.5
2016-Sep-21 13:43N 30°45' W 059°50'0 0.5 28.6
2016-Sep-21 12:53N 30°45' W 059°50'0 9.1 28.7
2016-Sep-21 12:51N 30°45' W 059°50'0 0.0 28.7
2016-Sep-21 12:20N 30°45' W 059°50'114.7 28.6
2016-Sep-21 12:16N 30°45' W 059°49'121.3 28.6
2016-Sep-21 12:13N 30°44' W 059°50'0 0.0 28.6
2016-Sep-21 11:59N 30°44' W 059°50'0 0.1 28.6
2016-Sep-21 11:16N 30°44' W 059°50'1 1.7 28.6
2016-Sep-21 10:33N 30°43' W 059°48'0 0.0 28.6
2016-Sep-21 09:38N 30°43' W 059°48'0 0.0 28.6
2016-Sep-21 09:30N 30°43' W 059°48'0 1.0 28.6
2016-Sep-21 09:07N 30°43' W 059°48'0 2.9 28.6
2016-Sep-21 09:03N 30°42' W 059°48'0 5.8 28.6
2016-Sep-21 08:58N 30°43' W 059°48'1 0.8 28.6
2016-Sep-21 08:07N 30°42' W 059°47'115.3 28.6
2016-Sep-21 08:03N 30°42' W 059°46'0 0.1 28.6
2016-Sep-21 06:28N 30°42' W 059°46'1 0.4 28.6
2016-Sep-21 02:59N 30°42' W 059°45'0 4.3 28.7
2016-Sep-21 02:53N 30°43' W 059°45'1 0.8 28.7
2016-Sep-21 02:06N 30°43' W 059°44'0 0.0 28.7
2016-Sep-21 01:23N 30°43' W 059°44'0 1.9 28.7
2016-Sep-21 01:13N 30°43' W 059°44'0 0.0 28.7
2016-Sep-21 00:34N 30°43' W 059°44'0 1.8 28.7
2016-Sep-21 00:26N 30°43' W 059°44'0 0.2 28.7
2016-Sep-20 23:51N 30°43' W 059°44'0 0.0 28.7
2016-Sep-20 23:34N 30°43' W 059°44'0 0.6 28.7
2016-Sep-20 22:52N 30°43' W 059°44'0 0.5 28.7
2016-Sep-20 22:16N 30°43' W 059°44'0 0.3 28.7
2016-Sep-20 22:06N 30°43' W 059°45'0 0.7 28.7
2016-Sep-20 21:53N 30°43' W 059°44'1 1.0 28.7
2016-Sep-20 21:17N 30°42' W 059°45'1 4.3 28.7
2016-Sep-20 21:07N 30°41' W 059°45'0 0.0 28.8
2016-Sep-20 20:34N 30°41' W 059°45'0 2.0 28.8
2016-Sep-20 20:30N 30°41' W 059°45'0 0.6 28.8
2016-Sep-20 19:44N 30°41' W 059°44'112.9 28.8
2016-Sep-20 19:41N 30°41' W 059°45'113.8 28.8
2016-Sep-20 19:36N 30°41' W 059°44'159.2 28.8
2016-Sep-20 19:35N 30°41' W 059°45'1 0.6 28.8
2016-Sep-20 18:06N 30°41' W 059°44'1 0.6 28.8
2016-Sep-20 16:23N 30°40' W 059°45'1 1.8 28.7
2016-Sep-20 15:42N 30°39' W 059°44'0 0.2 28.7
2016-Sep-20 14:52N 30°39' W 059°44'1 0.9 28.7
2016-Sep-20 14:05N 30°38' W 059°43'0 0.5 28.6
2016-Sep-20 13:17N 30°38' W 059°43'0 0.0 28.6
2016-Sep-20 13:14N 30°38' W 059°43'0 0.6 28.6
2016-Sep-20 12:31N 30°37' W 059°43'0 2.4 28.6
2016-Sep-20 12:28N 30°37' W 059°43'1 3.3 28.6
2016-Sep-20 12:18N 30°37' W 059°43'0 0.0 28.6
2016-Sep-20 11:41N 30°37' W 059°43'1 1.6 28.6
2016-Sep-20 11:19N 30°37' W 059°42'1 1.2 28.6
2016-Sep-20 10:53N 30°37' W 059°42'1 5.4 28.5
2016-Sep-20 10:46N 30°36' W 059°41'0 0.0 28.5
2016-Sep-20 10:03N 30°36' W 059°41'1 3.3 28.6
2016-Sep-20 09:53N 30°36' W 059°41'0 0.0 28.5
2016-Sep-20 09:43N 30°36' W 059°41'0 0.0 28.5
2016-Sep-20 09:38N 30°36' W 059°41'0 0.4 28.5
2016-Sep-20 08:23N 30°36' W 059°40'0 6.5
2016-Sep-20 08:21N 30°36' W 059°40'1 5.8 28.6
2016-Sep-20 08:14N 30°36' W 059°39'0 1.0 28.6
2016-Sep-20 08:00N 30°36' W 059°39'0 0.2 28.6
2016-Sep-20 06:45N 30°36' W 059°39'0 1.2 28.6
2016-Sep-20 06:42N 30°36' W 059°39'211.3 28.6
2016-Sep-20 06:34N 30°37' W 059°38'0 0.0 28.6
2016-Sep-20 02:32N 30°37' W 059°38'1 0.6 28.5
2016-Sep-20 01:38N 30°37' W 059°38'0 4.7 28.5
2016-Sep-20 01:34N 30°37' W 059°38'0 0.0 28.5
2016-Sep-20 00:52N 30°37' W 059°38'0 3.3 28.6
2016-Sep-20 00:49N 30°37' W 059°38'1 0.9 28.6
2016-Sep-20 00:06N 30°38' W 059°39'0 0.0 28.6
2016-Sep-19 23:57N 30°38' W 059°39'1 1.2 28.6
2016-Sep-19 23:19N 30°37' W 059°39'0 0.1 28.6
2016-Sep-19 22:30N 30°37' W 059°40'0 0.0 28.6
2016-Sep-19 22:23N 30°37' W 059°40'0 0.0 28.6
2016-Sep-19 22:19N 30°37' W 059°40'0 0.0 28.6
2016-Sep-19 21:39N 30°37' W 059°40'1 1.4 28.6
2016-Sep-19 20:36N 30°36' W 059°41'0 0.4 28.6
2016-Sep-19 19:53N 30°36' W 059°41'2 1.0 28.6
2016-Sep-19 18:18N 30°35' W 059°42'0 0.0 28.7
2016-Sep-19 18:14N 30°35' W 059°42'0 0.7 28.7
2016-Sep-19 18:07N 30°35' W 059°42'1 0.4 28.7
2016-Sep-19 16:35N 30°35' W 059°43'2 3.2 28.7
2016-Sep-19 16:00N 30°33' W 059°42'0 0.1 28.7
2016-Sep-19 15:16N 30°33' W 059°42'1 0.8 28.6
2016-Sep-19 14:25N 30°32' W 059°42'0 0.4 28.7
2016-Sep-19 13:38N 30°32' W 059°42'1 0.6 28.7
2016-Sep-19 12:41N 30°31' W 059°41'0 0.0 28.7
2016-Sep-19 12:36N 30°31' W 059°41'0 0.5 28.7
2016-Sep-19 12:04N 30°31' W 059°41'1 1.2 28.7
2016-Sep-19 11:00N 30°31' W 059°40'0 3.1 28.7
2016-Sep-19 10:53N 30°31' W 059°40'0 0.0 28.7
2016-Sep-19 10:27N 30°31' W 059°40'0 1.4 28.7
2016-Sep-19 10:06N 30°31' W 059°40'0 9.5
2016-Sep-19 10:04N 30°30' W 059°40'0 0.1 28.7
2016-Sep-19 09:21N 30°31' W 059°40'0 0.5 28.7
2016-Sep-19 08:34N 30°30' W 059°39'0 1.5 28.7
2016-Sep-19 08:26N 30°30' W 059°40'0 0.0 28.7
2016-Sep-19 08:23N 30°30' W 059°40'0 0.0 28.7
2016-Sep-19 06:51N 30°30' W 059°40'1 0.3 28.7
2016-Sep-19 02:52N 30°29' W 059°39'0 0.0 28.7
2016-Sep-19 02:01N 30°29' W 059°39'0 0.3 28.7
2016-Sep-19 01:52N 30°29' W 059°39'0 0.0
2016-Sep-19 01:17N 30°29' W 059°39'0 0.0 28.7
2016-Sep-19 01:14N 30°29' W 059°39'0 1.6 28.7
2016-Sep-19 01:06N 30°29' W 059°39'1 0.7 28.7
2016-Sep-19 00:23N 30°29' W 059°39'0 0.5 28.7
2016-Sep-18 23:34N 30°28' W 059°39'0 0.0 28.7
2016-Sep-18 23:00N 30°28' W 059°39'0 1.6 28.7
2016-Sep-18 22:56N 30°28' W 059°39'0 6.2 28.7
2016-Sep-18 22:53N 30°28' W 059°39'0 1.2 28.7
2016-Sep-18 22:37N 30°28' W 059°39'0 1.0 28.7
2016-Sep-18 22:34N 30°28' W 059°39'0 1.3 28.7
2016-Sep-18 22:28N 30°28' W 059°39'0 0.0 28.7
2016-Sep-18 22:07N 30°28' W 059°39'0 2.6 28.7
2016-Sep-18 21:56N 30°28' W 059°40'0 0.4 28.7
2016-Sep-18 20:53N 30°27' W 059°40'0 5.6 28.7
2016-Sep-18 20:49N 30°27' W 059°40'0 0.0 28.7
2016-Sep-18 20:26N 30°27' W 059°40'0 1.1 28.7
2016-Sep-18 20:06N 30°27' W 059°40'1 0.9 28.7
2016-Sep-18 18:23N 30°26' W 059°41'2 1.1 28.8
2016-Sep-18 16:46N 30°26' W 059°39'1 1.3 28.8
2016-Sep-18 15:36N 30°25' W 059°38'0 0.0 28.8
2016-Sep-18 14:47N 30°25' W 059°38'1 8.8 28.8
2016-Sep-18 14:42N 30°25' W 059°38'0 0.0 28.8
2016-Sep-18 13:53N 30°25' W 059°38'0 4.3 28.8
2016-Sep-18 13:50N 30°25' W 059°37'0 0.0 28.8
2016-Sep-18 13:04N 30°25' W 059°37'1 0.7 28.8
2016-Sep-18 12:15N 30°24' W 059°37'0 0.0 28.8
2016-Sep-18 11:12N 30°24' W 059°37'0 0.3 28.8
2016-Sep-18 10:48N 30°24' W 059°37'0 1.2 28.8
2016-Sep-18 10:40N 30°24' W 059°36'0 4.8 28.8
2016-Sep-18 10:35N 30°25' W 059°36'0 0.1 28.8
2016-Sep-18 09:32N 30°25' W 059°36'0 0.5 28.8
2016-Sep-18 09:03N 30°25' W 059°36'0 3.6 28.8
2016-Sep-18 08:59N 30°25' W 059°36'0 1.8 28.8
2016-Sep-18 08:45N 30°25' W 059°36'0 4.7 28.8
2016-Sep-18 08:40N 30°25' W 059°37'0 6.3 28.8
2016-Sep-18 08:37N 30°25' W 059°37'0 0.0 28.8
2016-Sep-18 07:05N 30°25' W 059°37'0 4.7 28.8
2016-Sep-18 07:01N 30°25' W 059°37'0 0.0 28.8
2016-Sep-18 06:58N 30°25' W 059°37'0 0.1 28.8
2016-Sep-18 05:22N 30°25' W 059°36'0 0.2 28.8
2016-Sep-18 02:23N 30°25' W 059°37'0 0.6 28.9
2016-Sep-18 02:17N 30°24' W 059°37'0 5.7 28.9
2016-Sep-18 02:14N 30°24' W 059°36'0 0.1 28.9
2016-Sep-18 01:34N 30°24' W 059°36'0 3.2 28.9
2016-Sep-18 01:26N 30°24' W 059°36'0 0.1 28.9
2016-Sep-18 00:43N 30°24' W 059°36'0 2.3 29.0
2016-Sep-18 00:36N 30°24' W 059°36'1 0.8 29.0
2016-Sep-17 23:53N 30°23' W 059°36'1 7.2
2016-Sep-17 23:48N 30°24' W 059°35'0 0.0 29.1
2016-Sep-17 23:28N 30°24' W 059°35'0 0.6 29.2
2016-Sep-17 22:45N 30°23' W 059°35'0 0.6 29.1
2016-Sep-17 22:27N 30°23' W 059°35'0 0.1
2016-Sep-17 21:52N 30°23' W 059°35'0 0.3 29.2
2016-Sep-17 21:04N 30°23' W 059°35'0 3.7 29.3
2016-Sep-17 21:01N 30°23' W 059°35'0 0.3 29.3
2016-Sep-17 20:50N 30°23' W 059°35'1 4.6 29.4
2016-Sep-17 20:41N 30°23' W 059°34'0 0.0 29.4
2016-Sep-17 20:18N 30°23' W 059°34'1 0.5 29.6
2016-Sep-17 18:35N 30°23' W 059°33'0 0.0 30.2
2016-Sep-17 18:32N 30°23' W 059°33'1 0.4 30.2
2016-Sep-17 16:59N 30°23' W 059°33'1 0.4 30.5
2016-Sep-17 15:04N 30°23' W 059°32'0 0.4 29.8
2016-Sep-17 14:21N 30°23' W 059°32'0 3.0 29.2
2016-Sep-17 14:15N 30°24' W 059°32'0 0.0 29.2
2016-Sep-17 13:23N 30°24' W 059°32'1 0.3 28.9
2016-Sep-17 11:29N 30°24' W 059°31'0 0.0 28.8
2016-Sep-17 11:25N 30°24' W 059°31'0 2.5 28.8
2016-Sep-17 11:14N 30°24' W 059°32'1 5.1 28.8
2016-Sep-17 11:06N 30°24' W 059°31'0 0.0 28.8
2016-Sep-17 09:48N 30°24' W 059°31'0 1.0 28.8
2016-Sep-17 09:43N 30°25' W 059°31'0 0.9 28.8
2016-Sep-17 09:36N 30°25' W 059°31'0 1.6 28.8
2016-Sep-17 09:30N 30°25' W 059°31'0 0.0 28.8
2016-Sep-17 09:28N 30°25' W 059°31'1 1.2 28.8
2016-Sep-17 08:53N 30°25' W 059°31'0 0.0 28.8
2016-Sep-17 08:50N 30°25' W 059°31'0 0.0 28.8
2016-Sep-17 07:53N 30°25' W 059°31'0 0.7 28.8
2016-Sep-17 07:18N 30°25' W 059°31'1 3.3 28.8
2016-Sep-17 07:07N 30°25' W 059°30'1 0.4 28.8
2016-Sep-17 05:29N 30°25' W 059°30'0 0.0 28.8
2016-Sep-17 02:43N 30°25' W 059°30'0 2.7 28.8
2016-Sep-17 02:37N 30°25' W 059°29'0 0.0 28.8
2016-Sep-17 01:53N 30°25' W 059°29'0 3.3 28.8
2016-Sep-17 01:50N 30°25' W 059°29'0 0.3 28.8
2016-Sep-17 01:05N 30°25' W 059°29'0 0.0 28.8
2016-Sep-17 01:02N 30°25' W 059°29'0 3.2 28.8
2016-Sep-17 00:53N 30°25' W 059°29'0 0.0 28.8
2016-Sep-17 00:18N 30°25' W 059°29'0 2.4 28.8
2016-Sep-17 00:16N 30°25' W 059°29'0 5.2 28.8
2016-Sep-17 00:11N 30°25' W 059°28'0 1.6 28.8
2016-Sep-16 23:59N 30°26' W 059°29'0 0.2 28.8
2016-Sep-16 23:22N 30°26' W 059°28'0 0.7 28.9
2016-Sep-16 22:53N 30°25' W 059°28'025.9 28.9
2016-Sep-16 22:52N 30°26' W 059°28'   28.9
Track history (hours):
 
Tides and Currents Weather Stations Pressure Air Temp Water Temp Dewpoint Dewpoint Depression Visibility Wind Speed Wind Dir Waves Ship Positions

Drifting buoy 13526

Last reported at 2016-Sep-26 22:43 UTC. Time now 2016-Sep-27 00:14 UTC.
Position N 31°08' W 059°52'.

Water temperature 28.1 ° C

Date/timePositionNaut miles runAvg speedWind from/ knotsBaromVisibWave heightAir tempDewpointWater temp
2016-Sep-26 22:43N 31°08' W 059°52'0 3.1 28.1
2016-Sep-26 22:40N 31°08' W 059°52'111.4 28.1
2016-Sep-26 22:36N 31°09' W 059°53'0 0.1 28.1
2016-Sep-26 22:07N 31°09' W 059°53'1 6.3 28.1
2016-Sep-26 21:56N 31°10' W 059°52'0 0.0 28.1
2016-Sep-26 21:05N 31°10' W 059°52'1 8.0 28.1
2016-Sep-26 20:59N 31°10' W 059°53'2 3.1 28.1
2016-Sep-26 20:27N 31°11' W 059°54'0 0.0 28.1
2016-Sep-26 20:15N 31°11' W 059°54'0 0.0 28.1
2016-Sep-26 18:40N 31°11' W 059°54'0 1.2 28.1
2016-Sep-26 18:34N 31°11' W 059°54'1 7.6 28.1
2016-Sep-26 18:29N 31°12' W 059°55'0 0.0 28.1
2016-Sep-26 16:57N 31°12' W 059°55'1 0.8 28.1
2016-Sep-26 15:17N 31°11' W 059°55'0 0.0 28.2
2016-Sep-26 14:34N 31°11' W 059°55'0 0.0 28.2
2016-Sep-26 14:30N 31°11' W 059°55'1 6.7 28.2
2016-Sep-26 14:24N 31°10' W 059°55'0 0.0 28.2
2016-Sep-26 13:41N 31°10' W 059°55'0 0.0 28.1
2016-Sep-26 13:39N 31°10' W 059°55'0 0.0 28.1
2016-Sep-26 12:53N 31°10' W 059°55'1 4.1 28.1
2016-Sep-26 12:45N 31°10' W 059°54'0 0.0 28.1
2016-Sep-26 12:26N 31°10' W 059°54'0 0.0 28.1
2016-Sep-26 11:56N 31°10' W 059°54'0 0.0 28.1
2016-Sep-26 11:32N 31°10' W 059°54'0 4.8 28.1
2016-Sep-26 11:26N 31°10' W 059°54'0 0.4 28.1
2016-Sep-26 11:18N 31°10' W 059°54'0 0.5 28.1
2016-Sep-26 10:52N 31°10' W 059°54'0 0.0 28.1
2016-Sep-26 10:50N 31°10' W 059°54'1 1.3 28.1
2016-Sep-26 09:52N 31°09' W 059°52'0 0.0 28.1
2016-Sep-26 09:51N 31°09' W 059°52'0 3.8 28.1
2016-Sep-26 09:46N 31°09' W 059°53'0 1.3 28.1
2016-Sep-26 09:40N 31°09' W 059°53'1 0.6 28.1
2016-Sep-26 08:52N 31°09' W 059°52'0 4.7 28.1
2016-Sep-26 08:51N 31°09' W 059°52'0 8.6 28.1
2016-Sep-26 08:48N 31°09' W 059°52'0 0.0 28.1
2016-Sep-26 08:14N 31°09' W 059°52'2 1.6 28.1
2016-Sep-26 07:16N 31°09' W 059°50'210.6 28.1
2016-Sep-26 07:07N 31°11' W 059°49'3 0.7 28.1
2016-Sep-26 02:54N 31°13' W 059°47'0 0.0
2016-Sep-26 02:06N 31°13' W 059°47'237.2 28.1
2016-Sep-26 02:03N 31°15' W 059°47'0 0.0 28.1
2016-Sep-26 00:26N 31°15' W 059°46'0 5.3 28.1
2016-Sep-26 00:23N 31°15' W 059°47'1 5.2 28.1
2016-Sep-26 00:17N 31°15' W 059°46'1 0.7 28.1
2016-Sep-25 22:53N 31°16' W 059°47'0 1.8 28.1
2016-Sep-25 22:38N 31°16' W 059°47'1 6.8 28.2
2016-Sep-25 22:25N 31°18' W 059°48'0 0.0 28.2
2016-Sep-25 21:18N 31°18' W 059°48'1 1.2 28.2
2016-Sep-25 20:52N 31°18' W 059°49'0 0.9 28.2
2016-Sep-25 20:47N 31°18' W 059°49'115.5 28.2
2016-Sep-25 20:43N 31°18' W 059°50'1 5.1 28.2
2016-Sep-25 20:26N 31°18' W 059°51'0 0.0 28.2
2016-Sep-25 18:51N 31°18' W 059°51'1 4.3 28.2
2016-Sep-25 18:41N 31°18' W 059°52'1 0.4 28.2
2016-Sep-25 14:53N 31°17' W 059°53'0 3.1 28.2
2016-Sep-25 14:51N 31°17' W 059°53'1 1.2 28.2
2016-Sep-25 13:53N 31°16' W 059°52'0 0.0 28.1
2016-Sep-25 13:13N 31°16' W 059°52'0 2.1 28.1
2016-Sep-25 13:07N 31°16' W 059°52'1 0.7 28.1
2016-Sep-25 11:37N 31°15' W 059°51'0 0.6 28.1
2016-Sep-25 11:32N 31°15' W 059°51'0 1.3 28.1
2016-Sep-25 11:26N 31°15' W 059°51'0 0.0 28.1
2016-Sep-25 11:15N 31°15' W 059°51'1 4.9 28.1
2016-Sep-25 11:06N 31°15' W 059°50'0 0.0 28.1
2016-Sep-25 10:26N 31°15' W 059°50'0 3.1 28.1
2016-Sep-25 10:22N 31°15' W 059°50'0 2.1 28.1
2016-Sep-25 10:15N 31°15' W 059°50'0 0.0 28.1
2016-Sep-25 09:52N 31°15' W 059°50'0 4.7 28.1
2016-Sep-25 09:51N 31°15' W 059°50'0 4.5 28.1
2016-Sep-25 09:46N 31°15' W 059°50'1 2.2 28.1
2016-Sep-25 09:28N 31°16' W 059°50'1 2.5 28.1
2016-Sep-25 09:03N 31°16' W 059°48'0 0.0 28.1
2016-Sep-25 08:59N 31°16' W 059°48'1 5.0 28.1
2016-Sep-25 08:46N 31°15' W 059°49'1 0.8 28.1
2016-Sep-25 07:25N 31°16' W 059°48'118.1 28.1
2016-Sep-25 07:21N 31°17' W 059°49'0 0.0 28.1
2016-Sep-25 07:16N 31°17' W 059°49'0 0.0 28.1
2016-Sep-25 05:44N 31°17' W 059°49'3 1.0 28.1
2016-Sep-25 02:29N 31°20' W 059°49'2 1.0 28.2
2016-Sep-25 00:51N 31°22' W 059°50'326.3 28.2
2016-Sep-25 00:45N 31°23' W 059°53'0 0.0 28.2
2016-Sep-24 23:53N 31°23' W 059°53'1 0.9 28.2
2016-Sep-24 23:07N 31°23' W 059°54'0 2.4 28.2
2016-Sep-24 23:05N 31°23' W 059°54'1 2.3 28.2
2016-Sep-24 22:52N 31°23' W 059°54'117.3
2016-Sep-24 22:50N 31°23' W 059°55'2 1.2 28.2
2016-Sep-24 21:32N 31°24' W 059°56'0 0.0 28.2
2016-Sep-24 21:29N 31°24' W 059°56'0 1.3 28.2
2016-Sep-24 21:18N 31°24' W 059°57'6 2.5 28.2
2016-Sep-24 18:52N 31°21' W 060°03'0 0.0 28.3
2016-Sep-24 17:20N 31°21' W 060°03'3 1.4 28.3
2016-Sep-24 15:13N 31°19' W 060°05'218.6 28.3
2016-Sep-24 15:05N 31°16' W 060°06'0 0.0 28.3
2016-Sep-24 14:16N 31°16' W 060°06'0 0.2 28.3
2016-Sep-24 13:33N 31°16' W 060°06'217.9 28.3
2016-Sep-24 13:26N 31°14' W 060°06'0 0.0 28.3
2016-Sep-24 11:48N 31°14' W 060°06'0 0.0 28.3
2016-Sep-24 11:43N 31°14' W 060°06'120.6 28.3
2016-Sep-24 11:40N 31°13' W 060°06'0 0.2 28.3
2016-Sep-24 10:52N 31°13' W 060°06'1 8.4 28.3
2016-Sep-24 10:46N 31°12' W 060°06'1 0.8 28.3
2016-Sep-24 10:00N 31°13' W 060°07'137.5 28.3
2016-Sep-24 09:59N 31°12' W 060°06'1 1.0 28.3
2016-Sep-24 09:16N 31°12' W 060°07'117.1 28.3
2016-Sep-24 09:11N 31°10' W 060°06'0 0.0 28.3
2016-Sep-24 07:38N 31°10' W 060°06'1 7.1 28.3
2016-Sep-24 07:33N 31°10' W 060°05'3 0.6 28.3
2016-Sep-24 02:46N 31°07' W 060°05'0 0.0 28.3
2016-Sep-24 01:53N 31°07' W 060°05'118.8 28.4
2016-Sep-24 01:51N 31°07' W 060°04'0 0.0 28.3
2016-Sep-24 01:07N 31°07' W 060°04'127.0 28.3
2016-Sep-24 01:05N 31°06' W 060°05'0 0.0 28.4
2016-Sep-24 00:18N 31°06' W 060°05'0 0.4 28.4
2016-Sep-23 23:41N 31°06' W 060°05'0 1.7 28.4
2016-Sep-23 23:30N 31°06' W 060°05'0 1.4 28.4
2016-Sep-23 23:21N 31°06' W 060°06'0 3.8 28.4
2016-Sep-23 23:16N 31°06' W 060°05'1 0.7 28.4
2016-Sep-23 22:06N 31°05' W 060°06'0 1.4 28.4
2016-Sep-23 22:01N 31°05' W 060°06'0 1.5 28.4
2016-Sep-23 21:43N 31°05' W 060°06'0 2.4 28.4
2016-Sep-23 21:41N 31°05' W 060°06'2 0.9 28.4
2016-Sep-23 19:52N 31°04' W 060°06'0 0.2 28.4
2016-Sep-23 19:06N 31°04' W 060°06'125.7 28.4
2016-Sep-23 19:03N 31°02' W 060°07'0 0.0 28.4
2016-Sep-23 17:31N 31°02' W 060°07'2 0.9 28.4
2016-Sep-23 15:33N 31°01' W 060°07'3 2.8 28.4
2016-Sep-23 14:38N 30°59' W 060°06'0 0.3 28.5
2016-Sep-23 13:52N 30°59' W 060°05'1 0.9 28.5
2016-Sep-23 13:01N 30°58' W 060°06'1 1.3 28.5
2016-Sep-23 12:14N 30°57' W 060°05'0 0.0 28.4
2016-Sep-23 12:03N 30°57' W 060°05'0 0.6 28.4
2016-Sep-23 11:52N 30°57' W 060°05'122.4 28.4
2016-Sep-23 11:49N 30°56' W 060°04'0 0.0 28.4
2016-Sep-23 11:23N 30°56' W 060°04'1 0.7 28.4
2016-Sep-23 10:25N 30°56' W 060°04'0 1.1 28.4
2016-Sep-23 10:16N 30°56' W 060°04'1 1.5 28.4
2016-Sep-23 09:48N 30°55' W 060°03'1 9.0 28.4
2016-Sep-23 09:39N 30°55' W 060°02'0 0.0 28.4
2016-Sep-23 09:25N 30°55' W 060°02'1 0.9 28.4
2016-Sep-23 07:52N 30°54' W 060°00'0 0.0 28.4
2016-Sep-23 07:50N 30°54' W 060°00'0 0.0 28.4
2016-Sep-23 07:46N 30°54' W 060°00'0 0.0 28.4
2016-Sep-23 06:07N 30°54' W 060°00'0 0.0
2016-Sep-23 06:06N 30°54' W 060°00'2 0.5 28.5
2016-Sep-23 02:19N 30°54' W 059°58'0 3.6 28.5
2016-Sep-23 02:13N 30°54' W 059°58'1 7.6 28.5
2016-Sep-23 02:08N 30°53' W 059°58'0 0.0
2016-Sep-23 01:35N 30°53' W 059°58'0 0.8 28.5
2016-Sep-23 01:31N 30°53' W 059°58'0 3.1 28.5
2016-Sep-23 01:25N 30°53' W 059°57'0 0.2 28.5
2016-Sep-23 00:39N 30°53' W 059°57'0 0.3 28.5
2016-Sep-22 23:53N 30°53' W 059°57'0 2.1 28.5
2016-Sep-22 23:47N 30°53' W 059°57'0 0.0 28.5
2016-Sep-22 23:32N 30°53' W 059°57'110.3 28.5
2016-Sep-22 23:29N 30°53' W 059°57'0 0.0 28.5
2016-Sep-22 22:37N 30°53' W 059°57'0 0.4 28.5
2016-Sep-22 22:06N 30°53' W 059°57'0 1.8 28.5
2016-Sep-22 21:57N 30°53' W 059°57'0 0.0 28.5
2016-Sep-22 21:52N 30°53' W 059°57'1 0.6 28.5
2016-Sep-22 20:52N 30°53' W 059°56'0 0.7 28.5
2016-Sep-22 20:26N 30°53' W 059°56'1 0.8 28.5
2016-Sep-22 19:23N 30°53' W 059°55'019.0 28.5
2016-Sep-22 19:22N 30°53' W 059°55'1 5.0 28.5
2016-Sep-22 19:14N 30°52' W 059°56'0 0.0 28.5
2016-Sep-22 17:38N 30°52' W 059°56'1 0.3 28.5
2016-Sep-22 15:03N 30°52' W 059°55'1 0.4 28.5
2016-Sep-22 12:29N 30°51' W 059°54'0 0.0 28.5
2016-Sep-22 12:25N 30°51' W 059°54'0 0.5 28.5
2016-Sep-22 12:06N 30°51' W 059°54'122.0 28.5
2016-Sep-22 12:03N 30°50' W 059°53'0 0.0 28.5
2016-Sep-22 10:51N 30°50' W 059°53'0 0.7 28.5
2016-Sep-22 10:28N 30°50' W 059°53'0 1.3 28.5
2016-Sep-22 10:22N 30°50' W 059°53'0 1.8 28.5
2016-Sep-22 10:18N 30°50' W 059°53'1 0.8 28.5
2016-Sep-22 09:02N 30°50' W 059°52'1 1.8 28.5
2016-Sep-22 08:44N 30°50' W 059°52'1 6.6 28.5
2016-Sep-22 08:39N 30°50' W 059°52'1 3.7 28.5
2016-Sep-22 08:30N 30°50' W 059°52'0 0.0 28.5
2016-Sep-22 08:03N 30°50' W 059°52'0 2.9 28.5
2016-Sep-22 07:53N 30°50' W 059°51'0 0.0 28.5
2016-Sep-22 06:20N 30°50' W 059°51'0 1.6 28.5
2016-Sep-22 06:17N 30°50' W 059°51'1 0.2 28.5
2016-Sep-22 02:41N 30°49' W 059°51'0 1.6 28.5
2016-Sep-22 02:35N 30°49' W 059°51'0 0.3 28.5
2016-Sep-22 01:53N 30°49' W 059°51'0 0.9 28.5
2016-Sep-22 01:45N 30°49' W 059°51'0 0.0 28.5
2016-Sep-22 01:01N 30°49' W 059°51'0 1.5 28.5
2016-Sep-22 00:53N 30°49' W 059°51'0 0.3 28.5
2016-Sep-22 00:07N 30°49' W 059°51'011.7 28.5
2016-Sep-22 00:06N 30°49' W 059°51'1 1.3 28.5
2016-Sep-21 23:41N 30°48' W 059°51'0 0.2 28.5
2016-Sep-21 23:18N 30°48' W 059°51'0 1.2 28.5
2016-Sep-21 23:04N 30°48' W 059°51'0 0.0 28.5
2016-Sep-21 23:01N 30°48' W 059°51'0 0.8 28.5
2016-Sep-21 22:28N 30°48' W 059°51'0 1.3 28.5
2016-Sep-21 22:22N 30°48' W 059°51'0 0.0 28.5
2016-Sep-21 22:05N 30°48' W 059°51'0 0.0 28.6
2016-Sep-21 22:00N 30°48' W 059°51'0 1.9 28.6
2016-Sep-21 21:55N 30°48' W 059°51'0 0.0 28.6
2016-Sep-21 21:28N 30°48' W 059°51'0 0.3 28.6
2016-Sep-21 20:53N 30°48' W 059°51'0 1.4 28.6
2016-Sep-21 20:46N 30°48' W 059°51'1 1.5 28.6
2016-Sep-21 20:22N 30°48' W 059°50'0 0.1 28.6
2016-Sep-21 19:34N 30°48' W 059°50'0 0.8 28.6
2016-Sep-21 19:30N 30°48' W 059°50'0 5.4 28.6
2016-Sep-21 19:25N 30°47' W 059°51'0 0.0 28.6
2016-Sep-21 17:52N 30°47' W 059°51'1 0.6 28.6
2016-Sep-21 15:21N 30°46' W 059°51'0 0.7 28.6
2016-Sep-21 14:38N 30°46' W 059°50'0 0.8 28.5
2016-Sep-21 14:32N 30°45' W 059°50'0 0.4 28.5
2016-Sep-21 13:43N 30°45' W 059°50'0 0.5 28.6
2016-Sep-21 12:53N 30°45' W 059°50'0 9.1 28.7
2016-Sep-21 12:51N 30°45' W 059°50'0 0.0 28.7
2016-Sep-21 12:20N 30°45' W 059°50'114.7 28.6
2016-Sep-21 12:16N 30°45' W 059°49'121.3 28.6
2016-Sep-21 12:13N 30°44' W 059°50'0 0.0 28.6
2016-Sep-21 11:59N 30°44' W 059°50'0 0.1 28.6
2016-Sep-21 11:16N 30°44' W 059°50'1 1.7 28.6
2016-Sep-21 10:33N 30°43' W 059°48'0 0.0 28.6
2016-Sep-21 09:38N 30°43' W 059°48'0 0.0 28.6
2016-Sep-21 09:30N 30°43' W 059°48'0 1.0 28.6
2016-Sep-21 09:07N 30°43' W 059°48'0 2.9 28.6
2016-Sep-21 09:03N 30°42' W 059°48'0 5.8 28.6
2016-Sep-21 08:58N 30°43' W 059°48'1 0.8 28.6
2016-Sep-21 08:07N 30°42' W 059°47'115.3 28.6
2016-Sep-21 08:03N 30°42' W 059°46'0 0.1 28.6
2016-Sep-21 06:28N 30°42' W 059°46'1 0.4 28.6
2016-Sep-21 02:59N 30°42' W 059°45'0 4.3 28.7
2016-Sep-21 02:53N 30°43' W 059°45'1 0.8 28.7
2016-Sep-21 02:06N 30°43' W 059°44'0 0.0 28.7
2016-Sep-21 01:23N 30°43' W 059°44'0 1.9 28.7
2016-Sep-21 01:13N 30°43' W 059°44'0 0.0 28.7
2016-Sep-21 00:34N 30°43' W 059°44'0 1.8 28.7
2016-Sep-21 00:26N 30°43' W 059°44'0 0.2 28.7
2016-Sep-20 23:51N 30°43' W 059°44'0 0.0 28.7
2016-Sep-20 23:34N 30°43' W 059°44'0 0.6 28.7
2016-Sep-20 22:52N 30°43' W 059°44'0 0.5 28.7
2016-Sep-20 22:16N 30°43' W 059°44'0 0.3 28.7
2016-Sep-20 22:06N 30°43' W 059°45'0 0.7 28.7
2016-Sep-20 21:53N 30°43' W 059°44'1 1.0 28.7
2016-Sep-20 21:17N 30°42' W 059°45'1 4.3 28.7
2016-Sep-20 21:07N 30°41' W 059°45'0 0.0 28.8
2016-Sep-20 20:34N 30°41' W 059°45'0 2.0 28.8
2016-Sep-20 20:30N 30°41' W 059°45'0 0.6 28.8
2016-Sep-20 19:44N 30°41' W 059°44'112.9 28.8
2016-Sep-20 19:41N 30°41' W 059°45'113.8 28.8
2016-Sep-20 19:36N 30°41' W 059°44'159.2 28.8
2016-Sep-20 19:35N 30°41' W 059°45'1 0.6 28.8
2016-Sep-20 18:06N 30°41' W 059°44'1 0.6 28.8
2016-Sep-20 16:23N 30°40' W 059°45'1 1.8 28.7
2016-Sep-20 15:42N 30°39' W 059°44'0 0.2 28.7
2016-Sep-20 14:52N 30°39' W 059°44'1 0.9 28.7
2016-Sep-20 14:05N 30°38' W 059°43'0 0.5 28.6
2016-Sep-20 13:17N 30°38' W 059°43'0 0.0 28.6
2016-Sep-20 13:14N 30°38' W 059°43'0 0.6 28.6
2016-Sep-20 12:31N 30°37' W 059°43'0 2.4 28.6
2016-Sep-20 12:28N 30°37' W 059°43'1 3.3 28.6
2016-Sep-20 12:18N 30°37' W 059°43'0 0.0 28.6
2016-Sep-20 11:41N 30°37' W 059°43'1 1.6 28.6
2016-Sep-20 11:19N 30°37' W 059°42'1 1.2 28.6
2016-Sep-20 10:53N 30°37' W 059°42'1 5.4 28.5
2016-Sep-20 10:46N 30°36' W 059°41'0 0.0 28.5
2016-Sep-20 10:03N 30°36' W 059°41'1 3.3 28.6
2016-Sep-20 09:53N 30°36' W 059°41'0 0.0 28.5
2016-Sep-20 09:43N 30°36' W 059°41'0 0.0 28.5
2016-Sep-20 09:38N 30°36' W 059°41'0 0.4 28.5
2016-Sep-20 08:23N 30°36' W 059°40'0 6.5
2016-Sep-20 08:21N 30°36' W 059°40'1 5.8 28.6
2016-Sep-20 08:14N 30°36' W 059°39'0 1.0 28.6
2016-Sep-20 08:00N 30°36' W 059°39'0 0.2 28.6
2016-Sep-20 06:45N 30°36' W 059°39'0 1.2 28.6
2016-Sep-20 06:42N 30°36' W 059°39'211.3 28.6
2016-Sep-20 06:34N 30°37' W 059°38'0 0.0 28.6
2016-Sep-20 02:32N 30°37' W 059°38'1 0.6 28.5
2016-Sep-20 01:38N 30°37' W 059°38'0 4.7 28.5
2016-Sep-20 01:34N 30°37' W 059°38'0 0.0 28.5
2016-Sep-20 00:52N 30°37' W 059°38'0 3.3 28.6
2016-Sep-20 00:49N 30°37' W 059°38'1 0.9 28.6
2016-Sep-20 00:06N 30°38' W 059°39'0 0.0 28.6
2016-Sep-19 23:57N 30°38' W 059°39'1 1.2 28.6
2016-Sep-19 23:19N 30°37' W 059°39'0 0.1 28.6
2016-Sep-19 22:30N 30°37' W 059°40'0 0.0 28.6
2016-Sep-19 22:23N 30°37' W 059°40'0 0.0 28.6
2016-Sep-19 22:19N 30°37' W 059°40'0 0.0 28.6
2016-Sep-19 21:39N 30°37' W 059°40'1 1.4 28.6
2016-Sep-19 20:36N 30°36' W 059°41'0 0.4 28.6
2016-Sep-19 19:53N 30°36' W 059°41'2 1.0 28.6
2016-Sep-19 18:18N 30°35' W 059°42'0 0.0 28.7
2016-Sep-19 18:14N 30°35' W 059°42'0 0.7 28.7
2016-Sep-19 18:07N 30°35' W 059°42'1 0.4 28.7
2016-Sep-19 16:35N 30°35' W 059°43'2 3.2 28.7
2016-Sep-19 16:00N 30°33' W 059°42'0 0.1 28.7
2016-Sep-19 15:16N 30°33' W 059°42'1 0.8 28.6
2016-Sep-19 14:25N 30°32' W 059°42'0 0.4 28.7
2016-Sep-19 13:38N 30°32' W 059°42'1 0.6 28.7
2016-Sep-19 12:41N 30°31' W 059°41'0 0.0 28.7
2016-Sep-19 12:36N 30°31' W 059°41'0 0.5 28.7
2016-Sep-19 12:04N 30°31' W 059°41'1 1.2 28.7
2016-Sep-19 11:00N 30°31' W 059°40'0 3.1 28.7
2016-Sep-19 10:53N 30°31' W 059°40'0 0.0 28.7
2016-Sep-19 10:27N 30°31' W 059°40'0 1.4 28.7
2016-Sep-19 10:06N 30°31' W 059°40'0 9.5
2016-Sep-19 10:04N 30°30' W 059°40'0 0.1 28.7
2016-Sep-19 09:21N 30°31' W 059°40'0 0.5 28.7
2016-Sep-19 08:34N 30°30' W 059°39'0 1.5 28.7
2016-Sep-19 08:26N 30°30' W 059°40'0 0.0 28.7
2016-Sep-19 08:23N 30°30' W 059°40'0 0.0 28.7
2016-Sep-19 06:51N 30°30' W 059°40'1 0.3 28.7
2016-Sep-19 02:52N 30°29' W 059°39'0 0.0 28.7
2016-Sep-19 02:01N 30°29' W 059°39'0 0.3 28.7
2016-Sep-19 01:52N 30°29' W 059°39'0 0.0
2016-Sep-19 01:17N 30°29' W 059°39'0 0.0 28.7
2016-Sep-19 01:14N 30°29' W 059°39'0 1.6 28.7
2016-Sep-19 01:06N 30°29' W 059°39'1 0.7 28.7
2016-Sep-19 00:23N 30°29' W 059°39'0 0.5 28.7
2016-Sep-18 23:34N 30°28' W 059°39'0 0.0 28.7
2016-Sep-18 23:00N 30°28' W 059°39'0 1.6 28.7
2016-Sep-18 22:56N 30°28' W 059°39'0 6.2 28.7
2016-Sep-18 22:53N 30°28' W 059°39'0 1.2 28.7
2016-Sep-18 22:37N 30°28' W 059°39'0 1.0 28.7
2016-Sep-18 22:34N 30°28' W 059°39'0 1.3 28.7
2016-Sep-18 22:28N 30°28' W 059°39'0 0.0 28.7
2016-Sep-18 22:07N 30°28' W 059°39'0 2.6 28.7
2016-Sep-18 21:56N 30°28' W 059°40'0 0.4 28.7
2016-Sep-18 20:53N 30°27' W 059°40'0 5.6 28.7
2016-Sep-18 20:49N 30°27' W 059°40'0 0.0 28.7
2016-Sep-18 20:26N 30°27' W 059°40'0 1.1 28.7
2016-Sep-18 20:06N 30°27' W 059°40'1 0.9 28.7
2016-Sep-18 18:23N 30°26' W 059°41'2 1.1 28.8
2016-Sep-18 16:46N 30°26' W 059°39'1 1.3 28.8
2016-Sep-18 15:36N 30°25' W 059°38'0 0.0 28.8
2016-Sep-18 14:47N 30°25' W 059°38'1 8.8 28.8
2016-Sep-18 14:42N 30°25' W 059°38'0 0.0 28.8
2016-Sep-18 13:53N 30°25' W 059°38'0 4.3 28.8
2016-Sep-18 13:50N 30°25' W 059°37'0 0.0 28.8
2016-Sep-18 13:04N 30°25' W 059°37'1 0.7 28.8
2016-Sep-18 12:15N 30°24' W 059°37'0 0.0 28.8
2016-Sep-18 11:12N 30°24' W 059°37'0 0.3 28.8
2016-Sep-18 10:48N 30°24' W 059°37'0 1.2 28.8
2016-Sep-18 10:40N 30°24' W 059°36'0 4.8 28.8
2016-Sep-18 10:35N 30°25' W 059°36'0 0.1 28.8
2016-Sep-18 09:32N 30°25' W 059°36'0 0.5 28.8
2016-Sep-18 09:03N 30°25' W 059°36'0 3.6 28.8
2016-Sep-18 08:59N 30°25' W 059°36'0 1.8 28.8
2016-Sep-18 08:45N 30°25' W 059°36'0 4.7 28.8
2016-Sep-18 08:40N 30°25' W 059°37'0 6.3 28.8
2016-Sep-18 08:37N 30°25' W 059°37'0 0.0 28.8
2016-Sep-18 07:05N 30°25' W 059°37'0 4.7 28.8
2016-Sep-18 07:01N 30°25' W 059°37'0 0.0 28.8
2016-Sep-18 06:58N 30°25' W 059°37'0 0.1 28.8
2016-Sep-18 05:22N 30°25' W 059°36'0 0.2 28.8
2016-Sep-18 02:23N 30°25' W 059°37'0 0.6 28.9
2016-Sep-18 02:17N 30°24' W 059°37'0 5.7 28.9
2016-Sep-18 02:14N 30°24' W 059°36'0 0.1 28.9
2016-Sep-18 01:34N 30°24' W 059°36'0 3.2 28.9
2016-Sep-18 01:26N 30°24' W 059°36'0 0.1 28.9
2016-Sep-18 00:43N 30°24' W 059°36'0 2.3 29.0
2016-Sep-18 00:36N 30°24' W 059°36'1 0.8 29.0
2016-Sep-17 23:53N 30°23' W 059°36'1 7.2
2016-Sep-17 23:48N 30°24' W 059°35'0 0.0 29.1
2016-Sep-17 23:28N 30°24' W 059°35'0 0.6 29.2
2016-Sep-17 22:45N 30°23' W 059°35'0 0.6 29.1
2016-Sep-17 22:27N 30°23' W 059°35'0 0.1
2016-Sep-17 21:52N 30°23' W 059°35'0 0.3 29.2
2016-Sep-17 21:04N 30°23' W 059°35'0 3.7 29.3
2016-Sep-17 21:01N 30°23' W 059°35'0 0.3 29.3
2016-Sep-17 20:50N 30°23' W 059°35'1 4.6 29.4
2016-Sep-17 20:41N 30°23' W 059°34'0 0.0 29.4
2016-Sep-17 20:18N 30°23' W 059°34'1 0.5 29.6
2016-Sep-17 18:35N 30°23' W 059°33'0 0.0 30.2
2016-Sep-17 18:32N 30°23' W 059°33'1 0.4 30.2
2016-Sep-17 16:59N 30°23' W 059°33'1 0.4 30.5
2016-Sep-17 15:04N 30°23' W 059°32'0 0.4 29.8
2016-Sep-17 14:21N 30°23' W 059°32'0 3.0 29.2
2016-Sep-17 14:15N 30°24' W 059°32'0 0.0 29.2
2016-Sep-17 13:23N 30°24' W 059°32'1 0.3 28.9
2016-Sep-17 11:29N 30°24' W 059°31'0 0.0 28.8
2016-Sep-17 11:25N 30°24' W 059°31'0 2.5 28.8
2016-Sep-17 11:14N 30°24' W 059°32'1 5.1 28.8
2016-Sep-17 11:06N 30°24' W 059°31'0 0.0 28.8
2016-Sep-17 09:48N 30°24' W 059°31'0 1.0 28.8
2016-Sep-17 09:43N 30°25' W 059°31'0 0.9 28.8
2016-Sep-17 09:36N 30°25' W 059°31'0 1.6 28.8
2016-Sep-17 09:30N 30°25' W 059°31'0 0.0 28.8
2016-Sep-17 09:28N 30°25' W 059°31'1 1.2 28.8
2016-Sep-17 08:53N 30°25' W 059°31'0 0.0 28.8
2016-Sep-17 08:50N 30°25' W 059°31'0 0.0 28.8
2016-Sep-17 07:53N 30°25' W 059°31'0 0.7 28.8
2016-Sep-17 07:18N 30°25' W 059°31'1 3.3 28.8
2016-Sep-17 07:07N 30°25' W 059°30'1 0.4 28.8
2016-Sep-17 05:29N 30°25' W 059°30'0 0.0 28.8
2016-Sep-17 02:43N 30°25' W 059°30'0 2.7 28.8
2016-Sep-17 02:37N 30°25' W 059°29'0 0.0 28.8
2016-Sep-17 01:53N 30°25' W 059°29'0 3.3 28.8
2016-Sep-17 01:50N 30°25' W 059°29'0 0.3 28.8
2016-Sep-17 01:05N 30°25' W 059°29'0 0.0 28.8
2016-Sep-17 01:02N 30°25' W 059°29'0 3.2 28.8
2016-Sep-17 00:53N 30°25' W 059°29'0 0.0 28.8
2016-Sep-17 00:18N 30°25' W 059°29'0 2.4 28.8
2016-Sep-17 00:16N 30°25' W 059°29'0 5.2 28.8
2016-Sep-17 00:11N 30°25' W 059°28'0 1.6 28.8
2016-Sep-16 23:59N 30°26' W 059°29'0 0.2 28.8
2016-Sep-16 23:22N 30°26' W 059°28'0 0.7 28.9
2016-Sep-16 22:53N 30°25' W 059°28'025.9 28.9
2016-Sep-16 22:52N 30°26' W 059°28'   28.9

Dump ship's entire track history